Time;durP1;ratioP1;P1;durP2;ratioP2;P2;SDS_P1;SDS_P2;PMS_P1;PMS_P2;Temp;Humidity;BMP_temperature;BMP_pressure;BME280_temperature;BME280_humidity;BME280_pressure;Samples;Min_cycle;Max_cycle;Signal;HPM_P1;HPM_P2
2023/02/27 00:00:43;;;;;;;13.60;6.50;;;;;;;3.82;77.51;100966.05;670082;1262;138464;-88
2023/02/27 00:15:59;;;;;;;18.60;7.50;;;;;;;3.80;77.52;100988.30;670671;1266;138447;-86
2023/02/27 00:31:03;;;;;;;12.60;6.50;;;;;;;3.63;77.54;100996.89;670692;1265;138625;-87
2023/02/27 00:46:08;;;;;;;12.90;6.60;;;;;;;3.56;77.81;101011.95;669934;1262;138494;-88
2023/02/27 01:01:11;;;;;;;11.80;6.30;;;;;;;3.62;78.33;101014.58;670318;1263;138664;-88
2023/02/27 01:16:14;;;;;;;10.10;5.80;;;;;;;3.71;77.82;101012.77;671427;1265;139435;-88
2023/02/27 01:31:17;;;;;;;13.30;7.00;;;;;;;3.68;77.83;101022.94;671919;1264;138907;-88
2023/02/27 01:46:22;;;;;;;10.50;5.80;;;;;;;3.67;77.86;101042.39;672256;1262;138716;-86
2023/02/27 02:01:26;;;;;;;9.90;6.20;;;;;;;3.70;78.08;101057.08;671422;1265;139460;-87
2023/02/27 02:16:33;;;;;;;11.30;6.70;;;;;;;3.71;77.98;101063.83;673063;1263;138714;-87
2023/02/27 02:31:46;;;;;;;12.20;6.30;;;;;;;3.65;78.01;101069.96;669798;1264;138192;-86
2023/02/27 02:47:24;;;;;;;16.80;8.20;;;;;;;3.56;78.01;101084.73;673113;1262;139334;-87
2023/02/27 03:02:34;;;;;;;8.00;5.50;;;;;;;3.54;77.77;101088.48;669738;1273;138331;-86
2023/02/27 03:18:06;;;;;;;14.20;6.20;;;;;;;3.51;77.92;101118.15;670103;1265;139262;-86
2023/02/27 03:33:20;;;;;;;13.60;7.80;;;;;;;3.50;78.05;101133.77;669931;1281;138661;-87
2023/02/27 03:48:25;;;;;;;16.10;6.60;;;;;;;3.50;78.19;101141.21;671370;1272;138787;-87
2023/02/27 04:03:36;;;;;;;14.90;7.60;;;;;;;3.54;78.15;101159.95;671092;1264;139166;-87
2023/02/27 04:18:58;;;;;;;16.70;8.90;;;;;;;3.50;77.94;101164.23;670143;1263;139004;-87
2023/02/27 04:34:13;;;;;;;9.30;6.50;;;;;;;3.45;77.95;101174.81;671715;1259;138834;-87
2023/02/27 04:49:28;;;;;;;37.60;15.00;;;;;;;3.45;77.76;101192.98;669357;1263;138737;-87
2023/02/27 05:04:35;;;;;;;30.90;13.90;;;;;;;3.46;77.79;101213.67;674433;1262;139445;-86
2023/02/27 05:19:41;;;;;;;48.20;22.70;;;;;;;3.47;77.86;101229.91;672087;1264;138810;-86
2023/02/27 05:34:50;;;;;;;23.90;11.90;;;;;;;3.45;77.73;101243.98;675160;1264;139671;-86
2023/02/27 05:50:01;;;;;;;47.70;24.60;;;;;;;3.39;77.64;101266.38;672856;1264;138606;-87
2023/02/27 06:05:05;;;;;;;82.70;34.40;;;;;;;3.42;77.60;101292.19;673627;1260;138003;-88
2023/02/27 06:20:09;;;;;;;170.10;67.40;;;;;;;3.52;77.57;101304.77;674456;1263;138892;-86
2023/02/27 06:35:13;;;;;;;55.30;27.50;;;;;;;3.43;77.18;101317.05;670885;1263;139995;-86
2023/02/27 06:50:16;;;;;;;82.00;38.50;;;;;;;3.98;77.50;101320.77;669651;1264;138527;-87
2023/02/27 07:05:19;;;;;;;34.10;18.30;;;;;;;5.48;77.67;101341.89;670783;1276;138460;-88
2023/02/27 07:20:22;;;;;;;34.70;16.00;;;;;;;6.56;76.75;101358.08;670130;1259;139050;-85
2023/02/27 07:35:27;;;;;;;25.20;12.30;;;;;;;6.45;74.72;101376.93;670542;1265;139270;-86
2023/02/27 07:50:30;;;;;;;23.10;12.00;;;;;;;6.44;74.62;101389.16;672122;1262;138180;-86
2023/02/27 08:05:34;;;;;;;21.80;11.10;;;;;;;6.58;73.41;101402.67;669374;1264;139571;-87
2023/02/27 08:20:38;;;;;;;33.20;13.80;;;;;;;7.25;71.01;101418.81;669797;1264;139504;-86
2023/02/27 08:35:41;;;;;;;30.10;11.50;;;;;;;7.86;69.70;101433.48;670363;1260;184248;-88
2023/02/27 08:50:45;;;;;;;12.30;6.00;;;;;;;8.18;69.31;101441.71;670490;1262;138789;-88
2023/02/27 09:05:49;;;;;;;55.00;32.40;;;;;;;8.64;65.53;101452.39;673496;1264;138916;-89
2023/02/27 09:20:52;;;;;;;17.90;7.90;;;;;;;8.35;61.84;101470.33;673195;1263;139391;-89
2023/02/27 09:35:55;;;;;;;28.30;12.10;;;;;;;8.07;61.96;101471.30;670577;1264;140556;-91
2023/02/27 09:50:59;;;;;;;136.40;47.10;;;;;;;8.67;59.17;101481.33;673741;1264;138860;-92
2023/02/27 10:06:09;;;;;;;21.40;11.00;;;;;;;9.42;56.96;101485.95;670780;1264;138345;-92
2023/02/27 10:21:18;;;;;;;32.70;13.10;;;;;;;10.41;56.31;101489.92;671240;1259;138271;-91
2023/02/27 10:36:22;;;;;;;22.90;9.90;;;;;;;9.30;51.38;101493.16;672313;1263;137985;-89
2023/02/27 10:51:36;;;;;;;30.70;14.20;;;;;;;10.17;51.52;101492.61;671717;1264;137940;-89
2023/02/27 11:06:41;;;;;;;24.00;13.80;;;;;;;10.99;49.75;101495.78;670322;1259;138431;-91
2023/02/27 11:22:03;;;;;;;78.60;33.50;;;;;;;11.58;48.69;101510.64;671392;1263;138191;-88
2023/02/27 11:37:31;;;;;;;13.40;6.00;;;;;;;11.70;48.95;101509.97;672030;1259;138591;-90
2023/02/27 11:52:40;;;;;;;18.50;8.60;;;;;;;10.98;49.86;101509.02;671513;1264;138355;-89
2023/02/27 12:07:52;;;;;;;54.90;23.30;;;;;;;11.52;49.98;101497.40;673300;1262;137203;-89
2023/02/27 12:22:56;;;;;;;24.40;9.80;;;;;;;11.55;48.95;101501.61;671180;1264;138903;-88
2023/02/27 12:38:01;;;;;;;29.10;11.50;;;;;;;12.38;49.04;101499.68;668778;1262;139198;-90
2023/02/27 12:53:41;;;;;;;7.80;3.10;;;;;;;13.09;48.53;101501.02;668348;1264;138558;-88
2023/02/27 13:08:50;;;;;;;14.40;7.50;;;;;;;14.01;47.87;101518.09;669477;1261;138264;-87
2023/02/27 13:24:21;;;;;;;8.30;3.80;;;;;;;14.95;45.91;101521.78;670191;1262;139506;-89
2023/02/27 13:39:37;;;;;;;32.90;14.40;;;;;;;14.17;45.13;101529.88;670529;1264;139204;-88
2023/02/27 13:54:41;;;;;;;14.30;6.30;;;;;;;18.38;44.35;101531.48;670135;1262;139233;-88
2023/02/27 14:09:47;;;;;;;36.50;18.90;;;;;;;20.74;39.56;101533.98;667631;1262;138570;-86
2023/02/27 14:25:04;;;;;;;17.90;6.70;;;;;;;23.67;38.14;101538.15;670354;1262;139168;-88
2023/02/27 14:40:35;;;;;;;10.60;4.70;;;;;;;19.87;36.33;101546.05;670206;1262;139066;-89
2023/02/27 14:55:38;;;;;;;20.80;11.60;;;;;;;20.40;37.28;101551.02;672248;1264;137906;-87
2023/02/27 15:10:43;;;;;;;33.30;17.20;;;;;;;25.59;36.33;101547.02;671745;1262;138616;-88
2023/02/27 15:25:47;;;;;;;15.60;12.20;;;;;;;19.29;37.65;101554.61;670448;1263;138711;-88
2023/02/27 15:40:51;;;;;;;19.00;6.80;;;;;;;15.71;40.58;101562.42;670776;1275;139083;-87
2023/02/27 15:55:58;;;;;;;10.50;6.30;;;;;;;16.55;39.89;101579.49;672315;1263;138776;-89
2023/02/27 16:11:03;;;;;;;25.90;11.00;;;;;;;13.66;40.94;101594.30;672729;1270;138098;-88
2023/02/27 16:26:32;;;;;;;81.90;44.20;;;;;;;10.67;43.43;101617.39;675316;1260;138689;-87
2023/02/27 16:41:36;;;;;;;97.70;40.10;;;;;;;8.69;45.42;101632.40;673882;1256;138548;-85
2023/02/27 16:56:45;;;;;;;306.80;110.90;;;;;;;7.66;47.35;101650.88;671799;1257;138492;-85
2023/02/27 17:11:51;;;;;;;293.30;109.50;;;;;;;7.03;48.57;101675.26;671510;1256;138855;-86
2023/02/27 17:26:56;;;;;;;397.50;135.70;;;;;;;6.29;49.97;101695.53;671194;1263;138922;-85
2023/02/27 17:42:00;;;;;;;497.60;204.80;;;;;;;5.80;51.10;101716.85;672699;1260;138992;-86
2023/02/27 17:57:05;;;;;;;505.00;199.50;;;;;;;5.35;52.10;101725.80;673401;1263;138667;-87
2023/02/27 18:12:10;;;;;;;605.60;242.00;;;;;;;5.05;53.04;101731.04;672683;1262;139258;-86
2023/02/27 18:27:14;;;;;;;471.60;186.70;;;;;;;4.77;53.94;101737.39;673268;1260;137804;-87
2023/02/27 18:42:18;;;;;;;335.10;127.10;;;;;;;4.49;54.55;101750.46;672143;1263;138811;-87
2023/02/27 18:57:22;;;;;;;289.90;108.60;;;;;;;4.22;54.92;101767.08;674178;1263;138847;-86
2023/02/27 19:12:26;;;;;;;168.80;62.80;;;;;;;3.92;55.45;101775.11;674764;1262;138681;-88
2023/02/27 19:27:30;;;;;;;309.10;98.80;;;;;;;3.68;56.07;101783.90;674615;1263;138580;-87
2023/02/27 19:42:34;;;;;;;460.00;149.30;;;;;;;3.40;56.77;101798.70;675167;1263;138411;-87
2023/02/27 19:57:38;;;;;;;176.70;61.90;;;;;;;3.15;57.25;101814.05;674320;1260;137732;-87
2023/02/27 20:12:42;;;;;;;163.10;59.20;;;;;;;3.07;58.23;101827.97;673053;1260;139239;-87
2023/02/27 20:27:46;;;;;;;307.90;115.70;;;;;;;3.05;58.65;101842.03;674589;1260;139878;-87
2023/02/27 20:42:50;;;;;;;189.20;60.40;;;;;;;2.95;59.68;101851.16;673601;1263;146956;-88
2023/02/27 20:57:53;;;;;;;130.70;44.50;;;;;;;2.87;60.47;101853.29;673521;1261;139315;-85
2023/02/27 21:12:57;;;;;;;137.20;48.00;;;;;;;2.81;60.34;101861.59;674025;1261;138963;-86
2023/02/27 21:28:00;;;;;;;122.40;42.00;;;;;;;2.51;60.20;101865.06;674553;1260;140983;-87
2023/02/27 21:43:04;;;;;;;217.70;69.90;;;;;;;2.21;60.78;101871.10;672863;1261;139388;-85
2023/02/27 21:58:09;;;;;;;106.90;39.20;;;;;;;1.92;61.18;101869.81;671600;1262;139697;-85
2023/02/27 22:13:14;;;;;;;117.90;43.30;;;;;;;1.55;61.34;101866.45;671977;1271;139247;-85
2023/02/27 22:28:17;;;;;;;110.00;43.20;;;;;;;1.49;61.66;101865.89;673155;1257;139856;-85
2023/02/27 22:43:21;;;;;;;103.60;39.30;;;;;;;1.39;62.14;101872.36;674186;1258;140143;-85
2023/02/27 22:58:25;;;;;;;59.00;21.10;;;;;;;1.18;62.68;101874.91;671303;1260;140077;-85
2023/02/27 23:13:28;;;;;;;69.80;27.20;;;;;;;1.03;62.68;101877.34;673214;1260;139307;-85
2023/02/27 23:28:33;;;;;;;80.70;30.50;;;;;;;0.92;63.23;101884.30;673639;1260;140404;-85
2023/02/27 23:43:36;;;;;;;263.20;74.00;;;;;;;0.43;64.51;101892.02;672363;1261;139411;-86
2023/02/27 23:58:40;;;;;;;77.30;28.30;;;;;;;0.22;64.72;101890.55;674201;1261;140232;-85
